Time;durP1;ratioP1;P1;durP2;ratioP2;P2;SDS_P1;SDS_P2;PMS_P1;PMS_P2;Temp;Humidity;BMP_temperature;BMP_pressure;BME280_temperature;BME280_humidity;BME280_pressure;Samples;Min_cycle;Max_cycle;Signal;HPM_P1;HPM_P2
2021/04/02 06:35:43;;;;;;;6.77;6.03;;;;;;;7.88;100.00;96011.66;5670303;22;20226;-92
2021/04/02 07:10:03;;;;;;;5.43;4.93;;;;;;;10.17;100.00;96040.91;4981718;28;20718;-95
2021/04/02 07:12:31;;;;;;;7.20;5.90;;;;;;;10.34;100.00;96052.31;4975269;28;20615;-96
2021/04/02 07:14:59;;;;;;;7.77;6.30;;;;;;;10.51;100.00;96047.09;4975045;28;20215;-95
2021/04/02 07:17:26;;;;;;;7.77;5.40;;;;;;;10.99;100.00;96050.69;4975209;28;20283;-95
2021/04/02 07:19:54;;;;;;;6.63;5.93;;;;;;;11.34;100.00;96052.09;4975034;28;20279;-93
2021/04/02 07:22:23;;;;;;;6.53;5.93;;;;;;;11.40;100.00;96048.78;4975039;28;20232;-93
2021/04/02 07:24:51;;;;;;;6.33;5.77;;;;;;;11.48;100.00;96059.28;4975070;28;20201;-96
2021/04/02 07:27:18;;;;;;;10.03;6.17;;;;;;;11.71;100.00;96063.81;4974876;28;20232;-95
2021/04/02 07:29:45;;;;;;;6.63;5.93;;;;;;;12.00;100.00;96056.16;4974876;28;20205;-94
2021/04/02 07:32:13;;;;;;;7.93;5.43;;;;;;;12.46;100.00;96050.91;4974632;28;20197;-92
2021/04/02 07:34:40;;;;;;;6.73;6.13;;;;;;;12.72;100.00;96049.75;4974973;28;20220;-93
2021/04/02 07:37:11;;;;;;;11.80;6.27;;;;;;;13.21;100.00;96044.84;4974709;28;20642;-93
2021/04/02 07:39:38;;;;;;;6.80;4.90;;;;;;;12.82;100.00;96053.78;4974670;28;20205;-92
2021/04/02 07:42:07;;;;;;;5.90;4.93;;;;;;;13.28;100.00;96051.09;4974555;28;20225;-92
2021/04/02 07:44:38;;;;;;;5.57;5.07;;;;;;;13.67;100.00;96054.47;4974578;28;20209;-92
2021/04/02 07:47:08;;;;;;;6.03;4.87;;;;;;;13.91;100.00;96046.25;4974619;28;20231;-92
2021/04/02 07:49:57;;;;;;;13.63;10.10;;;;;;;14.39;100.00;96049.22;4974744;28;20220;-92
2021/04/02 07:52:31;;;;;;;7.17;6.50;;;;;;;14.62;100.00;96053.56;4974387;28;20208;-92
2021/04/02 07:55:08;;;;;;;8.33;6.40;;;;;;;14.01;100.00;96048.59;4974458;28;20401;-93
2021/04/02 07:57:53;;;;;;;7.83;5.80;;;;;;;13.56;100.00;96048.63;4975020;28;20616;-92
2021/04/02 08:00:24;;;;;;;7.20;5.83;;;;;;;13.92;100.00;96047.88;4974439;28;20271;-92
2021/04/02 08:03:08;;;;;;;8.03;6.80;;;;;;;13.73;100.00;96040.53;4974177;28;20243;-93
2021/04/02 08:05:35;;;;;;;8.47;6.67;;;;;;;14.07;100.00;96036.47;4975353;28;20290;-92
2021/04/02 08:08:02;;;;;;;12.63;6.87;;;;;;;13.73;100.00;96040.53;4974209;28;20608;-92
2021/04/02 08:10:30;;;;;;;9.80;7.70;;;;;;;13.83;100.00;96022.56;4974354;28;20279;-92
2021/04/02 08:12:57;;;;;;;20.27;8.97;;;;;;;13.51;100.00;96029.91;4974375;28;20201;-91
2021/04/02 08:15:25;;;;;;;12.63;8.33;;;;;;;13.40;100.00;96022.41;4974302;28;20235;-94
2021/04/02 08:17:55;;;;;;;12.53;8.77;;;;;;;14.01;100.00;96015.06;4978304;28;20227;-92
2021/04/02 08:20:23;;;;;;;11.27;8.67;;;;;;;14.11;100.00;96020.06;4977385;28;20288;-91
2021/04/02 08:22:51;;;;;;;9.73;8.47;;;;;;;14.57;100.00;96018.91;4974024;28;20235;-92
2021/04/02 08:25:22;;;;;;;11.67;8.40;;;;;;;15.02;100.00;96014.19;4966529;28;20202;-91
2021/04/02 08:27:49;;;;;;;12.97;8.17;;;;;;;15.23;100.00;96003.56;4970584;28;20211;-92
2021/04/02 08:30:17;;;;;;;14.10;8.43;;;;;;;15.20;100.00;96009.22;4974058;28;20287;-92
2021/04/02 08:32:48;;;;;;;10.50;8.40;;;;;;;15.53;100.00;95998.84;4973972;28;20193;-91
2021/04/02 08:35:18;;;;;;;8.47;7.57;;;;;;;15.51;100.00;96011.47;4974219;28;20208;-91
2021/04/02 08:37:57;;;;;;;8.00;7.20;;;;;;;16.49;100.00;95998.78;4973972;28;20239;-90
2021/04/02 08:40:24;;;;;;;9.30;7.60;;;;;;;15.64;100.00;96000.13;4974925;28;20624;-91
2021/04/02 08:42:51;;;;;;;9.37;8.37;;;;;;;15.72;100.00;96001.81;4973163;28;20225;-92
2021/04/02 08:45:20;;;;;;;11.07;7.43;;;;;;;16.15;100.00;96007.69;4973883;28;20208;-91
2021/04/02 08:47:49;;;;;;;9.03;8.13;;;;;;;16.24;100.00;96006.47;4973908;28;20616;-91
2021/04/02 08:50:16;;;;;;;8.47;7.67;;;;;;;15.92;100.00;96008.81;4976540;28;20208;-91
2021/04/02 08:52:42;;;;;;;10.77;8.70;;;;;;;16.49;100.00;96004.09;4973949;28;20197;-92
2021/04/02 08:55:10;;;;;;;10.10;8.87;;;;;;;15.35;100.00;96001.19;4973804;28;20289;-92
2021/04/02 08:57:38;;;;;;;12.80;9.53;;;;;;;15.24;100.00;95997.28;4973780;28;20228;-92
2021/04/02 09:00:09;;;;;;;14.13;9.20;;;;;;;15.60;100.00;95988.28;4973724;28;20284;-92
2021/04/02 09:02:37;;;;;;;9.70;8.10;;;;;;;16.09;100.00;95992.56;4974064;28;20251;-91
2021/04/02 09:05:07;;;;;;;8.60;7.70;;;;;;;15.86;100.00;95992.91;4973956;28;20213;-92
2021/04/02 09:07:38;;;;;;;15.27;8.90;;;;;;;16.01;100.00;95993.59;4973696;28;20225;-93
2021/04/02 09:10:11;;;;;;;16.07;9.07;;;;;;;16.36;100.00;95981.00;4973581;28;20318;-92
2021/04/02 09:12:38;;;;;;;11.27;8.93;;;;;;;16.64;100.00;95985.34;4973880;28;20582;-91
2021/04/02 09:15:06;;;;;;;11.50;9.20;;;;;;;16.64;100.00;95990.63;4973645;28;20221;-91
2021/04/02 09:17:33;;;;;;;12.37;8.70;;;;;;;16.32;100.00;95993.06;4973760;28;20228;-92
2021/04/02 09:20:01;;;;;;;12.53;8.50;;;;;;;16.03;100.00;95999.47;4973696;28;20209;-91
2021/04/02 09:22:29;;;;;;;13.93;8.90;;;;;;;16.13;100.00;95996.47;4973397;28;20235;-91
2021/04/02 09:24:57;;;;;;;12.60;8.80;;;;;;;16.08;100.00;95990.94;4976068;28;20205;-91
2021/04/02 09:27:24;;;;;;;9.73;7.60;;;;;;;16.11;100.00;95979.94;4977214;28;20200;-91
2021/04/02 09:29:56;;;;;;;8.57;7.63;;;;;;;16.02;100.00;95981.94;4977068;28;20201;-90
2021/04/02 09:32:23;;;;;;;9.37;8.47;;;;;;;16.35;100.00;95971.44;4977408;28;20221;-91
2021/04/02 09:34:50;;;;;;;9.63;8.10;;;;;;;16.76;100.00;95966.97;4976768;28;20201;-90
2021/04/02 09:37:17;;;;;;;12.67;7.90;;;;;;;16.82;100.00;95969.63;4976974;28;20213;-91
2021/04/02 09:39:45;;;;;;;17.37;8.70;;;;;;;16.45;100.00;95971.00;4976928;28;20658;-91
2021/04/02 09:42:16;;;;;;;12.17;7.70;;;;;;;16.85;100.00;95969.22;4976778;28;20737;-92
2021/04/02 09:44:48;;;;;;;13.17;7.87;;;;;;;16.30;100.00;95967.75;4976790;28;20240;-92
2021/04/02 09:47:15;;;;;;;8.70;7.57;;;;;;;16.56;100.00;95962.47;4976763;28;20671;-91
2021/04/02 09:49:43;;;;;;;9.20;8.27;;;;;;;17.31;100.00;95959.56;4976616;28;20197;-91
2021/04/02 09:52:11;;;;;;;11.90;8.83;;;;;;;17.05;100.00;95949.81;4976734;28;20202;-91
2021/04/02 09:54:38;;;;;;;9.67;8.37;;;;;;;17.19;100.00;95962.06;4976574;28;20202;-92
2021/04/02 09:57:08;;;;;;;11.00;8.10;;;;;;;17.20;100.00;95952.25;4976685;28;20206;-90
2021/04/02 09:59:36;;;;;;;12.53;10.03;;;;;;;17.68;100.00;95947.41;4976443;28;20257;-91
2021/04/02 10:02:03;;;;;;;10.77;7.40;;;;;;;17.10;100.00;95963.28;4976275;28;20306;-91
2021/04/02 10:04:30;;;;;;;8.97;7.77;;;;;;;16.51;100.00;95950.81;4976261;28;20206;-91
2021/04/02 10:06:58;;;;;;;7.77;6.97;;;;;;;16.20;100.00;95949.56;4976501;28;20203;-91
2021/04/02 10:09:25;;;;;;;12.97;8.60;;;;;;;15.99;100.00;95952.38;4976064;28;20236;-91
2021/04/02 10:11:52;;;;;;;12.70;9.03;;;;;;;15.98;100.00;95956.88;4976170;28;20213;-91
2021/04/02 10:14:20;;;;;;;9.47;8.57;;;;;;;15.93;100.00;95951.34;4976325;28;20206;-91
2021/04/02 10:16:47;;;;;;;10.80;8.37;;;;;;;15.85;100.00;95948.88;4976268;28;20665;-91
2021/04/02 10:19:15;;;;;;;9.47;8.47;;;;;;;15.62;100.00;95954.44;4976237;28;20204;-90
2021/04/02 10:21:42;;;;;;;11.70;8.87;;;;;;;15.65;100.00;95946.09;4976300;28;20208;-91
2021/04/02 10:24:10;;;;;;;11.40;9.60;;;;;;;15.77;100.00;95943.75;4975941;28;20662;-91
2021/04/02 10:26:37;;;;;;;13.40;9.80;;;;;;;15.64;100.00;95941.84;4975961;28;20237;-90
2021/04/02 10:29:05;;;;;;;31.23;20.87;;;;;;;15.80;100.00;95941.53;4975987;28;20674;-92
2021/04/02 10:31:33;;;;;;;15.80;11.63;;;;;;;16.05;100.00;95944.44;4976017;28;20626;-91
2021/04/02 10:34:00;;;;;;;12.90;10.13;;;;;;;16.41;100.00;95945.91;4975810;28;20201;-89
2021/04/02 10:36:27;;;;;;;12.67;9.53;;;;;;;16.28;100.00;95948.56;4974703;28;20204;-91
2021/04/02 10:38:54;;;;;;;13.50;9.53;;;;;;;16.51;100.00;95942.88;4975840;28;20245;-91
2021/04/02 10:41:21;;;;;;;19.03;9.53;;;;;;;16.61;100.00;95937.97;4975610;28;20237;-90
2021/04/02 10:43:48;;;;;;;16.33;8.67;;;;;;;16.52;100.00;95913.50;4975732;28;20307;-91
2021/04/02 10:46:15;;;;;;;12.47;9.73;;;;;;;16.25;100.00;95896.75;4975504;28;20229;-91
2021/04/02 10:48:43;;;;;;;13.67;8.73;;;;;;;16.07;100.00;95904.47;4975425;28;20205;-91
2021/04/02 10:51:10;;;;;;;9.77;7.87;;;;;;;15.73;100.00;95895.66;4975424;28;20244;-91
2021/04/02 10:53:37;;;;;;;9.87;8.13;;;;;;;15.66;100.00;95889.53;4975305;28;20686;-92
2021/04/02 10:56:05;;;;;;;9.67;8.03;;;;;;;15.87;100.00;95899.16;4975400;28;20227;-91
2021/04/02 10:58:33;;;;;;;11.00;7.20;;;;;;;16.03;100.00;95895.28;4975283;28;20193;-91
2021/04/02 11:01:01;;;;;;;8.50;7.67;;;;;;;16.40;100.00;95900.00;4975325;28;20677;-90
2021/04/02 11:03:29;;;;;;;8.60;6.73;;;;;;;16.70;100.00;95896.97;4975404;28;20232;-91
2021/04/02 11:05:57;;;;;;;8.43;7.60;;;;;;;16.99;100.00;95905.50;4975477;28;20608;-91
2021/04/02 11:08:24;;;;;;;8.20;7.37;;;;;;;17.76;100.00;95898.50;4975257;28;20402;-91
2021/04/02 11:10:51;;;;;;;8.63;7.77;;;;;;;17.68;100.00;95896.91;4975125;28;20715;-91
2021/04/02 11:13:18;;;;;;;7.90;7.20;;;;;;;17.88;100.00;95896.03;4974996;28;20226;-90
2021/04/02 11:15:45;;;;;;;11.40;8.63;;;;;;;18.13;100.00;95883.56;4975016;28;20210;-91
2021/04/02 11:18:12;;;;;;;12.97;7.33;;;;;;;18.65;100.00;95878.06;4975028;28;20220;-90
2021/04/02 11:20:39;;;;;;;10.40;7.20;;;;;;;18.35;100.00;95880.56;4974892;28;20673;-90
2021/04/02 11:23:07;;;;;;;7.17;6.47;;;;;;;18.16;100.00;95877.84;4975043;28;20272;-91
2021/04/02 11:25:33;;;;;;;12.00;7.20;;;;;;;18.04;100.00;95876.88;4974759;28;20211;-91
2021/04/02 11:28:00;;;;;;;7.17;6.47;;;;;;;18.58;100.00;95869.31;4974762;28;20201;-91
2021/04/02 11:30:27;;;;;;;10.30;9.30;;;;;;;18.63;100.00;95862.28;4974841;28;20201;-92
2021/04/02 11:32:54;;;;;;;8.63;7.03;;;;;;;19.08;100.00;95859.41;4974899;28;20201;-91
2021/04/02 11:35:21;;;;;;;8.07;7.07;;;;;;;19.50;100.00;95859.56;4974846;28;20685;-90
2021/04/02 11:37:48;;;;;;;9.70;6.27;;;;;;;19.63;100.00;95862.06;4974581;28;20674;-90
2021/04/02 11:40:17;;;;;;;7.27;6.50;;;;;;;19.74;100.00;95854.34;4974777;28;20274;-91
2021/04/02 11:42:44;;;;;;;8.67;6.63;;;;;;;19.45;100.00;95849.56;4974482;28;20256;-91
2021/04/02 11:45:12;;;;;;;7.67;6.90;;;;;;;19.46;100.00;95851.16;4974777;28;20228;-91
2021/04/02 11:47:39;;;;;;;9.83;5.50;;;;;;;19.21;100.00;95848.59;4974402;28;20583;-91
2021/04/02 11:50:08;;;;;;;7.47;6.17;;;;;;;19.46;100.00;95840.50;4974508;28;20639;-91
2021/04/02 11:52:35;;;;;;;9.07;7.33;;;;;;;19.59;100.00;95833.41;4974345;28;20201;-92
2021/04/02 11:55:03;;;;;;;7.93;6.03;;;;;;;18.94;100.00;95840.09;4974440;28;20193;-92
2021/04/02 11:57:31;;;;;;;10.70;9.70;;;;;;;18.89;100.00;95833.81;4974579;28;20209;-93
2021/04/02 11:59:58;;;;;;;10.27;6.37;;;;;;;18.93;100.00;95829.69;4974237;28;20189;-91
2021/04/02 12:02:25;;;;;;;8.37;7.57;;;;;;;18.79;100.00;95833.53;4974173;28;20219;-92
2021/04/02 12:04:52;;;;;;;9.63;7.70;;;;;;;18.62;100.00;95833.25;4974435;28;20205;-90
2021/04/02 12:07:19;;;;;;;10.83;7.77;;;;;;;18.80;100.00;95825.31;4974134;28;20247;-91
2021/04/02 12:09:46;;;;;;;10.73;6.97;;;;;;;18.59;100.00;95825.69;4973938;28;20259;-91
2021/04/02 12:12:13;;;;;;;6.43;5.83;;;;;;;18.30;100.00;95825.34;4973975;28;20679;-91
2021/04/02 12:14:41;;;;;;;7.13;6.43;;;;;;;18.09;100.00;95821.22;4974395;28;20227;-92
2021/04/02 12:17:08;;;;;;;7.80;5.80;;;;;;;17.98;100.00;95817.41;4973994;28;20299;-91
2021/04/02 12:19:34;;;;;;;8.03;7.23;;;;;;;17.77;100.00;95820.44;4974364;28;20673;-91
2021/04/02 12:22:01;;;;;;;7.07;5.70;;;;;;;17.64;100.00;95826.59;4974575;28;20200;-92
2021/04/02 12:24:29;;;;;;;10.53;7.10;;;;;;;17.40;100.00;95822.03;4974276;28;20232;-90
2021/04/02 12:26:56;;;;;;;7.20;6.50;;;;;;;17.32;100.00;95820.44;4966360;28;20247;-92
2021/04/02 12:29:23;;;;;;;7.60;6.87;;;;;;;17.00;100.00;95822.19;4954777;29;20211;-90
2021/04/02 12:31:51;;;;;;;7.60;5.70;;;;;;;16.80;100.00;95820.41;4954614;29;20337;-91
2021/04/02 12:34:18;;;;;;;8.07;7.27;;;;;;;17.03;100.00;95813.81;4954740;29;20636;-91
2021/04/02 12:36:45;;;;;;;7.50;6.80;;;;;;;17.01;100.00;95815.88;4954572;29;20215;-90
2021/04/02 12:39:12;;;;;;;7.90;6.57;;;;;;;16.91;100.00;95818.16;4955324;29;20686;-91
2021/04/02 12:41:38;;;;;;;21.07;12.50;;;;;;;17.01;100.00;95819.34;4955425;29;20653;-90
2021/04/02 12:44:06;;;;;;;7.97;7.17;;;;;;;16.77;100.00;95817.38;4954661;29;20199;-91
2021/04/02 12:46:33;;;;;;;8.00;6.67;;;;;;;16.73;100.00;95816.09;4954841;29;20221;-91
2021/04/02 12:49:01;;;;;;;7.87;6.47;;;;;;;16.75;100.00;95811.44;4954882;29;20211;-91
2021/04/02 12:51:28;;;;;;;9.53;6.67;;;;;;;16.60;100.00;95803.69;4954585;29;20236;-92
2021/04/02 12:53:55;;;;;;;10.10;8.10;;;;;;;16.71;100.00;95804.91;4954339;29;20316;-91
2021/04/02 12:56:22;;;;;;;9.50;7.20;;;;;;;16.81;100.00;95798.16;4954466;29;20205;-91
2021/04/02 12:58:49;;;;;;;7.37;6.63;;;;;;;16.88;100.00;95809.56;4954649;28;20204;-90
2021/04/02 13:01:15;;;;;;;7.77;6.23;;;;;;;16.99;100.00;95801.97;4958394;29;20585;-91
2021/04/02 13:03:42;;;;;;;8.07;7.17;;;;;;;17.03;100.00;95808.50;4958070;29;20205;-91
2021/04/02 13:06:10;;;;;;;12.00;8.13;;;;;;;16.90;100.00;95798.72;4958896;29;20267;-91
2021/04/02 13:08:37;;;;;;;8.37;7.57;;;;;;;17.09;100.00;95792.53;4958179;28;20240;-90
2021/04/02 13:11:04;;;;;;;7.00;6.30;;;;;;;17.51;100.00;95781.50;4958162;29;20212;-91
2021/04/02 13:13:31;;;;;;;7.57;6.87;;;;;;;18.17;100.00;95782.88;4958221;29;20232;-90
2021/04/02 13:15:58;;;;;;;6.80;6.10;;;;;;;18.72;100.00;95781.16;4958044;29;20231;-90
2021/04/02 13:18:25;;;;;;;6.83;5.93;;;;;;;19.34;100.00;95778.38;4957793;29;20255;-90
2021/04/02 13:20:52;;;;;;;6.43;5.83;;;;;;;19.47;100.00;95772.06;4957738;29;20198;-91
2021/04/02 13:23:20;;;;;;;5.40;4.90;;;;;;;19.13;100.00;95786.84;4957814;29;20286;-91
2021/04/02 13:25:47;;;;;;;6.77;5.93;;;;;;;19.44;100.00;95775.16;4957773;29;20584;-90
2021/04/02 13:28:14;;;;;;;7.10;6.40;;;;;;;19.48;100.00;95776.34;4957565;29;20205;-90
2021/04/02 13:30:40;;;;;;;9.13;6.50;;;;;;;18.98;100.00;95779.22;4957964;29;20277;-90
2021/04/02 13:33:07;;;;;;;6.37;5.77;;;;;;;18.79;100.00;95774.94;4957718;29;20681;-91
2021/04/02 13:35:34;;;;;;;7.00;6.23;;;;;;;19.13;100.00;95769.00;4957631;29;20238;-91
2021/04/02 13:38:01;;;;;;;13.63;6.23;;;;;;;19.52;100.00;95763.38;4957805;29;20208;-91
2021/04/02 13:40:29;;;;;;;6.47;5.87;;;;;;;19.35;100.00;95768.53;4957742;29;20573;-91
2021/04/02 13:42:56;;;;;;;7.63;6.07;;;;;;;18.97;100.00;95767.75;4957521;29;20194;-91
2021/04/02 13:45:23;;;;;;;8.13;6.20;;;;;;;19.05;100.00;95764.00;4957875;29;20213;-91
2021/04/02 13:47:50;;;;;;;10.87;8.67;;;;;;;19.27;100.00;95761.66;4957239;29;20206;-90
2021/04/02 13:50:19;;;;;;;28.93;19.17;;;;;;;18.80;100.00;95765.91;4957208;29;20283;-91
2021/04/02 13:52:47;;;;;;;11.50;7.63;;;;;;;18.50;100.00;95764.78;4957126;29;20272;-91
2021/04/02 13:55:16;;;;;;;8.03;6.00;;;;;;;18.43;100.00;95755.25;4957041;29;20194;-92
2021/04/02 13:57:44;;;;;;;8.50;6.33;;;;;;;18.39;100.00;95767.34;4957248;29;20621;-91
2021/04/02 14:00:13;;;;;;;10.33;9.23;;;;;;;18.89;100.00;95759.28;4957474;29;20715;-91
2021/04/02 14:02:41;;;;;;;10.03;8.33;;;;;;;18.47;100.00;95762.56;4957093;29;20194;-91
2021/04/02 14:05:10;;;;;;;11.23;9.67;;;;;;;18.54;100.00;95759.84;4957246;29;20213;-92
2021/04/02 14:07:37;;;;;;;6.40;5.50;;;;;;;18.56;100.00;95759.59;4957238;29;20288;-91
2021/04/02 14:10:07;;;;;;;7.97;6.80;;;;;;;18.65;100.00;95759.09;4956259;28;20244;-92
2021/04/02 14:12:34;;;;;;;7.83;6.90;;;;;;;18.28;100.00;95759.03;4957047;29;20249;-91
2021/04/02 14:15:02;;;;;;;6.17;5.57;;;;;;;18.24;100.00;95757.84;4956762;29;20206;-92
2021/04/02 14:17:29;;;;;;;7.30;6.57;;;;;;;18.18;100.00;95757.91;4964814;29;20202;-91
2021/04/02 14:19:56;;;;;;;9.17;8.27;;;;;;;18.01;100.00;95757.66;4956920;29;20233;-90
2021/04/02 14:22:23;;;;;;;8.00;7.27;;;;;;;17.99;100.00;95757.06;4956851;29;20226;-91
2021/04/02 14:24:50;;;;;;;13.43;12.07;;;;;;;17.99;100.00;95749.91;4956912;29;20205;-92
2021/04/02 14:27:17;;;;;;;9.00;8.03;;;;;;;17.98;100.00;95752.78;4956836;29;20202;-93
2021/04/02 14:29:44;;;;;;;9.10;7.93;;;;;;;17.92;100.00;95754.47;4956196;29;20206;-94
2021/04/02 14:32:12;;;;;;;9.00;8.20;;;;;;;17.85;100.00;95758.22;4956511;29;20206;-93
2021/04/02 14:34:38;;;;;;;10.57;9.73;;;;;;;17.72;100.00;95761.75;4956519;29;20205;-92
2021/04/02 14:37:06;;;;;;;8.50;7.70;;;;;;;17.76;100.00;95745.16;4956519;29;20201;-92
2021/04/02 14:39:32;;;;;;;13.13;11.83;;;;;;;17.65;100.00;95748.50;4956313;29;20288;-92
2021/04/02 14:42:00;;;;;;;9.93;5.83;;;;;;;17.65;100.00;95742.38;4956381;29;20197;-92
2021/04/02 14:44:27;;;;;;;13.23;8.87;;;;;;;17.61;100.00;95744.66;4956324;29;20313;-92
2021/04/02 14:46:54;;;;;;;8.47;7.53;;;;;;;17.56;100.00;95745.31;4956389;29;20209;-91
2021/04/02 14:49:22;;;;;;;8.73;7.87;;;;;;;17.49;100.00;95749.84;4955745;29;20209;-92
2021/04/02 14:51:49;;;;;;;12.33;9.40;;;;;;;17.48;100.00;95747.38;4956357;29;20189;-92
2021/04/02 14:54:16;;;;;;;7.97;6.70;;;;;;;17.49;100.00;95746.34;4956284;29;20268;-92
2021/04/02 14:56:43;;;;;;;7.73;5.77;;;;;;;17.51;100.00;95752.28;4956107;29;20198;-92
2021/04/02 14:59:10;;;;;;;7.77;7.07;;;;;;;17.47;100.00;95745.75;4955938;29;20197;-92
2021/04/02 15:01:37;;;;;;;10.07;9.20;;;;;;;17.43;100.00;95744.56;4955932;29;20292;-93
2021/04/02 15:04:04;;;;;;;12.63;9.37;;;;;;;17.38;100.00;95745.19;4964779;28;20259;-90
2021/04/02 15:06:32;;;;;;;14.20;12.77;;;;;;;17.52;100.00;95745.91;4975033;28;20205;-90
2021/04/02 15:08:59;;;;;;;9.03;8.03;;;;;;;17.59;100.00;95741.38;4974999;28;20233;-90
2021/04/02 15:11:26;;;;;;;9.90;9.00;;;;;;;17.72;100.00;95741.28;4975065;28;20300;-90
2021/04/02 15:13:53;;;;;;;9.77;6.23;;;;;;;18.06;100.00;95739.22;4974941;28;20231;-90
2021/04/02 15:16:19;;;;;;;7.93;7.13;;;;;;;18.15;100.00;95745.03;4974909;28;20201;-91
2021/04/02 15:18:46;;;;;;;8.80;6.83;;;;;;;18.24;100.00;95733.91;4975140;28;20304;-91
2021/04/02 15:21:13;;;;;;;7.20;6.50;;;;;;;18.04;100.00;95734.09;4955607;28;20293;-90
2021/04/02 15:23:41;;;;;;;12.07;8.10;;;;;;;18.03;100.00;95729.81;4955248;29;20620;-90
2021/04/02 15:26:08;;;;;;;6.93;6.30;;;;;;;18.21;100.00;95725.56;4955555;29;20288;-90
2021/04/02 15:28:34;;;;;;;8.60;7.57;;;;;;;18.38;100.00;95718.63;4955438;29;20698;-91
2021/04/02 15:31:01;;;;;;;9.30;8.50;;;;;;;18.20;100.00;95713.31;4955354;29;20269;-90
2021/04/02 15:33:28;;;;;;;9.50;8.37;;;;;;;18.06;100.00;95717.94;4955428;29;20233;-91
2021/04/02 15:35:55;;;;;;;9.93;6.03;;;;;;;17.88;100.00;95718.72;4955500;29;20645;-91
2021/04/02 15:38:22;;;;;;;10.70;6.03;;;;;;;17.77;100.00;95714.09;4955214;29;20241;-90
2021/04/02 15:40:49;;;;;;;7.50;6.17;;;;;;;17.66;100.00;95714.75;4955146;29;20194;-91
2021/04/02 15:43:16;;;;;;;9.63;6.40;;;;;;;17.55;100.00;95700.31;4955184;29;20293;-91
2021/04/02 15:45:43;;;;;;;8.23;6.60;;;;;;;17.40;100.00;95713.13;4955301;29;20233;-90
2021/04/02 15:48:10;;;;;;;10.33;8.57;;;;;;;17.23;100.00;95704.84;4955355;29;20666;-90
2021/04/02 15:50:37;;;;;;;11.00;9.20;;;;;;;17.07;100.00;95700.84;4955345;29;20205;-91
2021/04/02 15:53:17;;;;;;;;;;;;;;;;;;;;;
2021/04/02 15:55:44;;;;;;;15.93;14.13;;;;;;;16.69;100.00;95727.31;4955382;29;20196;-91
2021/04/02 15:58:11;;;;;;;49.43;41.07;;;;;;;16.55;100.00;95730.00;4955056;29;20204;-92
2021/04/02 16:00:38;;;;;;;33.90;27.73;;;;;;;16.38;100.00;95728.84;4954991;29;20197;-92
2021/04/02 16:03:05;;;;;;;18.10;16.13;;;;;;;16.26;100.00;95741.13;4954812;29;20297;-91
2021/04/02 16:05:32;;;;;;;25.07;22.30;;;;;;;16.09;100.00;95740.72;4955082;29;20216;-91
2021/04/02 16:08:00;;;;;;;34.57;31.07;;;;;;;15.99;100.00;95743.78;4954235;28;20206;-90
2021/04/02 16:10:29;;;;;;;27.47;24.73;;;;;;;15.90;100.00;95745.84;4954876;29;20235;-92
2021/04/02 16:12:57;;;;;;;15.40;12.77;;;;;;;15.80;100.00;95747.28;4954729;29;20231;-91
2021/04/02 16:15:26;;;;;;;172.17;120.00;;;;;;;15.75;100.00;95752.34;4954901;29;20209;-91
2021/04/02 16:17:54;;;;;;;67.67;49.70;;;;;;;15.71;100.00;95751.94;4954899;29;20197;-90
2021/04/02 16:20:21;;;;;;;47.80;41.37;;;;;;;15.80;100.00;95745.44;4954837;29;20198;-91
2021/04/02 16:22:48;;;;;;;65.70;58.57;;;;;;;15.70;100.00;95747.69;4954804;29;20244;-91
2021/04/02 16:25:15;;;;;;;26.30;23.63;;;;;;;15.55;100.00;95744.38;4960465;28;20243;-91
2021/04/02 16:27:42;;;;;;;17.77;14.23;;;;;;;15.53;100.00;95759.66;4973951;28;20212;-91
2021/04/02 16:30:11;;;;;;;25.73;20.63;;;;;;;15.40;100.00;95749.84;4973890;28;20295;-91
2021/04/02 16:32:39;;;;;;;26.17;23.47;;;;;;;15.28;100.00;95746.97;4973778;28;20248;-90
2021/04/02 16:35:08;;;;;;;28.23;22.23;;;;;;;15.30;100.00;95757.38;4975938;28;20206;-92
2021/04/02 16:37:36;;;;;;;8.93;8.03;;;;;;;15.29;100.00;95761.84;4977770;28;20199;-91
2021/04/02 16:40:05;;;;;;;7.50;5.87;;;;;;;15.14;100.00;95762.03;4977804;28;20207;-90
2021/04/02 16:42:32;;;;;;;7.00;6.30;;;;;;;15.14;100.00;95767.31;4977706;28;20203;-91
2021/04/02 16:44:59;;;;;;;9.87;6.57;;;;;;;15.16;100.00;95775.84;4977854;28;20696;-90
2021/04/02 16:47:26;;;;;;;11.47;8.77;;;;;;;15.26;100.00;95766.72;4977838;28;20234;-91
2021/04/02 16:49:54;;;;;;;8.60;7.80;;;;;;;15.33;100.00;95778.97;4978038;28;20217;-90
2021/04/02 16:52:21;;;;;;;20.07;8.17;;;;;;;15.24;100.00;95788.13;4977752;28;20302;-91
2021/04/02 16:54:49;;;;;;;7.60;5.90;;;;;;;15.23;100.00;95797.06;4977592;28;20207;-90
2021/04/02 16:57:16;;;;;;;8.67;6.23;;;;;;;15.28;100.00;95802.59;4977513;28;20231;-91
2021/04/02 16:59:43;;;;;;;9.07;6.30;;;;;;;15.17;100.00;95805.78;4977451;28;20198;-92
2021/04/02 17:02:10;;;;;;;6.83;5.10;;;;;;;14.99;100.00;95790.44;4977690;28;20688;-91
2021/04/02 17:04:37;;;;;;;6.20;5.60;;;;;;;14.49;100.00;95748.28;4977432;28;20199;-93
2021/04/02 17:07:05;;;;;;;5.50;4.90;;;;;;;14.28;100.00;95724.59;4977617;28;20634;-94
2021/04/02 17:09:32;;;;;;;9.50;5.10;;;;;;;14.14;100.00;95691.16;4977133;28;20226;-95
2021/04/02 17:11:59;;;;;;;6.53;4.57;;;;;;;14.13;100.00;95681.59;4977350;28;20237;-95
2021/04/02 17:14:26;;;;;;;6.53;5.83;;;;;;;13.96;100.00;95667.91;4977348;28;20283;-94
2021/04/02 17:16:53;;;;;;;6.13;5.63;;;;;;;13.81;100.00;95660.06;4977346;28;20197;-95
2021/04/02 17:19:20;;;;;;;8.43;7.03;;;;;;;13.87;100.00;95622.31;4977071;28;20201;-93
2021/04/02 17:21:47;;;;;;;6.57;5.97;;;;;;;13.80;100.00;95638.13;4977204;28;20224;-94
2021/04/02 17:24:15;;;;;;;6.37;5.77;;;;;;;13.83;100.00;95647.50;4977092;28;20765;-95
2021/04/02 17:26:42;;;;;;;11.07;9.87;;;;;;;13.98;100.00;95661.38;4977260;28;20232;-93
2021/04/02 17:29:08;;;;;;;21.83;14.60;;;;;;;13.71;100.00;95643.75;4977311;28;20227;-94
2021/04/02 17:31:35;;;;;;;30.40;22.67;;;;;;;13.72;100.00;95603.13;4977271;28;20304;-93
2021/04/02 17:34:02;;;;;;;17.47;14.63;;;;;;;13.67;100.00;95602.88;4976798;28;20260;-94
2021/04/02 17:36:29;;;;;;;30.10;24.60;;;;;;;13.47;100.00;95579.00;4976717;28;20208;-95
2021/04/02 17:38:56;;;;;;;12.47;10.40;;;;;;;13.48;100.00;95562.16;4976922;28;20277;-94
2021/04/02 17:41:24;;;;;;;12.87;11.57;;;;;;;13.39;100.00;95558.03;4976930;28;20320;-94
2021/04/02 17:43:52;;;;;;;23.70;19.43;;;;;;;13.44;100.00;95545.91;4976798;28;20197;-93
2021/04/02 17:46:20;;;;;;;32.37;22.73;;;;;;;13.34;100.00;95529.59;4976152;28;20201;-93
2021/04/02 17:48:47;;;;;;;14.57;10.53;;;;;;;13.21;100.00;95537.38;4976413;28;20228;-93
2021/04/02 17:51:14;;;;;;;7.53;6.73;;;;;;;13.22;100.00;95542.47;4976564;28;20344;-95
2021/04/02 17:53:41;;;;;;;8.00;7.20;;;;;;;13.34;100.00;95541.97;4976393;28;20228;-94
2021/04/02 17:56:08;;;;;;;34.10;18.80;;;;;;;13.08;100.00;95552.09;4976410;28;20249;-94
2021/04/02 17:58:36;;;;;;;21.40;15.37;;;;;;;13.07;100.00;95542.56;4976353;28;20288;-96
2021/04/02 18:01:03;;;;;;;18.67;17.07;;;;;;;13.11;100.00;95548.28;4976049;28;20555;-94
2021/04/02 18:03:30;;;;;;;25.60;17.93;;;;;;;12.96;100.00;95540.47;4976453;28;20749;-94
2021/04/02 18:05:57;;;;;;;25.50;16.30;;;;;;;13.13;100.00;95524.31;4976540;28;20400;-94
2021/04/02 18:08:24;;;;;;;13.37;11.77;;;;;;;12.91;100.00;95527.00;4976152;28;20295;-95
2021/04/02 18:10:51;;;;;;;157.07;73.17;;;;;;;12.92;100.00;95528.66;4976235;28;20193;-95
2021/04/02 18:13:18;;;;;;;66.17;42.23;;;;;;;12.87;100.00;95519.69;4976064;28;20682;-95
2021/04/02 18:15:46;;;;;;;26.73;19.87;;;;;;;13.09;100.00;95492.22;4976003;28;20221;-94
2021/04/02 18:18:12;;;;;;;16.47;13.97;;;;;;;12.96;100.00;95495.63;4976468;28;20228;-93
2021/04/02 18:20:39;;;;;;;136.87;74.70;;;;;;;12.66;100.00;95500.25;4976074;28;20279;-93
2021/04/02 18:23:07;;;;;;;78.10;49.17;;;;;;;12.51;100.00;95466.06;4976146;28;20339;-94
2021/04/02 18:25:38;;;;;;;39.17;30.07;;;;;;;12.43;100.00;95463.53;4976480;28;20205;-93
2021/04/02 18:28:05;;;;;;;32.57;22.27;;;;;;;12.45;100.00;95452.81;4976401;28;20193;-95
2021/04/02 18:30:32;;;;;;;32.17;25.90;;;;;;;12.34;100.00;95448.88;4975975;28;20244;-95